sensor_id;sensor_type;location;lat;lon;timestamp;P1;durP1;ratioP1;P2;durP2;ratioP2
64520;SDS011;50896;46.714;17.322;2023-07-02T00:00:05;13.52;;;9.35;;
64520;SDS011;50896;46.714;17.322;2023-07-02T00:02:34;13.52;;;10.02;;
64520;SDS011;50896;46.714;17.322;2023-07-02T00:05:05;14.38;;;10.27;;
64520;SDS011;50896;46.714;17.322;2023-07-02T00:07:33;13.02;;;9.32;;
64520;SDS011;50896;46.714;17.322;2023-07-02T00:10:03;12.75;;;9.93;;
64520;SDS011;50896;46.714;17.322;2023-07-02T00:12:30;13.93;;;9.52;;
64520;SDS011;50896;46.714;17.322;2023-07-02T00:14:57;14.50;;;10.80;;
64520;SDS011;50896;46.714;17.322;2023-07-02T00:17:24;16.58;;;11.05;;
64520;SDS011;50896;46.714;17.322;2023-07-02T00:19:51;15.93;;;10.82;;
64520;SDS011;50896;46.714;17.322;2023-07-02T00:22:19;15.55;;;10.55;;
64520;SDS011;50896;46.714;17.322;2023-07-02T00:24:47;19.20;;;10.73;;
64520;SDS011;50896;46.714;17.322;2023-07-02T00:27:14;12.27;;;9.88;;
64520;SDS011;50896;46.714;17.322;2023-07-02T00:29:41;18.67;;;9.98;;
64520;SDS011;50896;46.714;17.322;2023-07-02T00:32:08;13.68;;;10.30;;
64520;SDS011;50896;46.714;17.322;2023-07-02T00:34:35;16.33;;;10.10;;
64520;SDS011;50896;46.714;17.322;2023-07-02T00:37:02;15.02;;;10.00;;
64520;SDS011;50896;46.714;17.322;2023-07-02T00:39:28;13.98;;;10.75;;
64520;SDS011;50896;46.714;17.322;2023-07-02T00:42:00;15.38;;;11.05;;
64520;SDS011;50896;46.714;17.322;2023-07-02T00:44:29;15.95;;;10.80;;
64520;SDS011;50896;46.714;17.322;2023-07-02T00:46:56;15.27;;;10.95;;
64520;SDS011;50896;46.714;17.322;2023-07-02T00:49:24;16.73;;;11.23;;
64520;SDS011;50896;46.714;17.322;2023-07-02T00:51:51;17.38;;;10.88;;
64520;SDS011;50896;46.714;17.322;2023-07-02T00:54:17;16.35;;;11.57;;
64520;SDS011;50896;46.714;17.322;2023-07-02T00:56:44;15.52;;;12.00;;
64520;SDS011;50896;46.714;17.322;2023-07-02T00:59:14;17.92;;;11.23;;
64520;SDS011;50896;46.714;17.322;2023-07-02T01:01:41;18.40;;;12.27;;
64520;SDS011;50896;46.714;17.322;2023-07-02T01:04:08;16.27;;;10.73;;
64520;SDS011;50896;46.714;17.322;2023-07-02T01:06:36;14.63;;;11.35;;
64520;SDS011;50896;46.714;17.322;2023-07-02T01:09:06;15.43;;;11.70;;
64520;SDS011;50896;46.714;17.322;2023-07-02T01:11:42;16.23;;;10.82;;
64520;SDS011;50896;46.714;17.322;2023-07-02T01:14:14;15.88;;;11.05;;
64520;SDS011;50896;46.714;17.322;2023-07-02T01:16:43;13.90;;;11.18;;
64520;SDS011;50896;46.714;17.322;2023-07-02T01:19:13;16.98;;;11.27;;
64520;SDS011;50896;46.714;17.322;2023-07-02T01:21:47;15.20;;;11.02;;
64520;SDS011;50896;46.714;17.322;2023-07-02T01:24:15;16.42;;;11.50;;
64520;SDS011;50896;46.714;17.322;2023-07-02T01:26:43;15.93;;;10.73;;
64520;SDS011;50896;46.714;17.322;2023-07-02T01:29:15;17.88;;;11.10;;
64520;SDS011;50896;46.714;17.322;2023-07-02T01:31:43;16.20;;;10.68;;
64520;SDS011;50896;46.714;17.322;2023-07-02T01:34:10;15.13;;;10.75;;
64520;SDS011;50896;46.714;17.322;2023-07-02T01:36:37;15.93;;;10.93;;
64520;SDS011;50896;46.714;17.322;2023-07-02T01:39:05;15.43;;;11.05;;
64520;SDS011;50896;46.714;17.322;2023-07-02T01:41:44;15.57;;;11.10;;
64520;SDS011;50896;46.714;17.322;2023-07-02T01:44:31;13.23;;;10.17;;
64520;SDS011;50896;46.714;17.322;2023-07-02T01:46:58;19.33;;;11.15;;
64520;SDS011;50896;46.714;17.322;2023-07-02T01:49:25;15.50;;;10.32;;
64520;SDS011;50896;46.714;17.322;2023-07-02T01:51:52;15.48;;;10.77;;
64520;SDS011;50896;46.714;17.322;2023-07-02T01:54:20;16.15;;;10.85;;
64520;SDS011;50896;46.714;17.322;2023-07-02T01:56:49;15.30;;;10.30;;
64520;SDS011;50896;46.714;17.322;2023-07-02T01:59:16;15.40;;;10.65;;
64520;SDS011;50896;46.714;17.322;2023-07-02T02:01:43;15.85;;;10.68;;
64520;SDS011;50896;46.714;17.322;2023-07-02T02:04:10;17.95;;;11.30;;
64520;SDS011;50896;46.714;17.322;2023-07-02T02:06:38;15.77;;;10.93;;
64520;SDS011;50896;46.714;17.322;2023-07-02T02:09:06;16.38;;;9.77;;
64520;SDS011;50896;46.714;17.322;2023-07-02T02:11:34;18.13;;;11.13;;
64520;SDS011;50896;46.714;17.322;2023-07-02T02:14:03;12.73;;;9.25;;
64520;SDS011;50896;46.714;17.322;2023-07-02T02:16:30;12.45;;;9.60;;
64520;SDS011;50896;46.714;17.322;2023-07-02T02:19:01;15.65;;;10.07;;
64520;SDS011;50896;46.714;17.322;2023-07-02T02:21:29;16.23;;;10.55;;
64520;SDS011;50896;46.714;17.322;2023-07-02T02:23:56;12.75;;;9.35;;
64520;SDS011;50896;46.714;17.322;2023-07-02T02:26:26;17.20;;;11.27;;
64520;SDS011;50896;46.714;17.322;2023-07-02T02:28:53;13.68;;;10.20;;
64520;SDS011;50896;46.714;17.322;2023-07-02T02:31:20;17.33;;;10.77;;
64520;SDS011;50896;46.714;17.322;2023-07-02T02:33:48;16.77;;;10.00;;
64520;SDS011;50896;46.714;17.322;2023-07-02T02:36:16;14.85;;;10.40;;
64520;SDS011;50896;46.714;17.322;2023-07-02T02:38:44;14.25;;;10.30;;
64520;SDS011;50896;46.714;17.322;2023-07-02T02:41:11;13.98;;;10.18;;
64520;SDS011;50896;46.714;17.322;2023-07-02T02:43:43;14.63;;;10.43;;
64520;SDS011;50896;46.714;17.322;2023-07-02T02:46:19;15.95;;;10.73;;
64520;SDS011;50896;46.714;17.322;2023-07-02T02:48:46;12.32;;;9.50;;
64520;SDS011;50896;46.714;17.322;2023-07-02T02:51:13;18.63;;;10.68;;
64520;SDS011;50896;46.714;17.322;2023-07-02T02:53:40;18.27;;;10.48;;
64520;SDS011;50896;46.714;17.322;2023-07-02T02:56:07;14.63;;;10.68;;
64520;SDS011;50896;46.714;17.322;2023-07-02T02:58:34;13.98;;;9.90;;
64520;SDS011;50896;46.714;17.322;2023-07-02T03:01:01;14.07;;;9.98;;
64520;SDS011;50896;46.714;17.322;2023-07-02T03:03:27;13.77;;;9.65;;
64520;SDS011;50896;46.714;17.322;2023-07-02T03:05:54;14.25;;;10.35;;
64520;SDS011;50896;46.714;17.322;2023-07-02T03:08:21;16.75;;;10.75;;
64520;SDS011;50896;46.714;17.322;2023-07-02T03:10:48;17.48;;;10.15;;
64520;SDS011;50896;46.714;17.322;2023-07-02T03:13:15;15.43;;;10.35;;
64520;SDS011;50896;46.714;17.322;2023-07-02T03:15:42;15.05;;;9.57;;
64520;SDS011;50896;46.714;17.322;2023-07-02T03:18:09;17.48;;;10.27;;
64520;SDS011;50896;46.714;17.322;2023-07-02T03:20:36;15.32;;;10.63;;
64520;SDS011;50896;46.714;17.322;2023-07-02T03:23:03;16.50;;;10.63;;
64520;SDS011;50896;46.714;17.322;2023-07-02T03:25:30;15.45;;;10.20;;
64520;SDS011;50896;46.714;17.322;2023-07-02T03:27:56;15.32;;;9.93;;
64520;SDS011;50896;46.714;17.322;2023-07-02T03:30:23;15.35;;;9.93;;
64520;SDS011;50896;46.714;17.322;2023-07-02T03:32:50;14.95;;;10.18;;
64520;SDS011;50896;46.714;17.322;2023-07-02T03:35:17;15.52;;;10.30;;
64520;SDS011;50896;46.714;17.322;2023-07-02T03:37:44;19.23;;;10.10;;
64520;SDS011;50896;46.714;17.322;2023-07-02T03:40:12;14.73;;;9.45;;
64520;SDS011;50896;46.714;17.322;2023-07-02T03:42:39;15.65;;;10.40;;
64520;SDS011;50896;46.714;17.322;2023-07-02T03:45:06;15.32;;;10.30;;
64520;SDS011;50896;46.714;17.322;2023-07-02T03:47:33;18.67;;;11.32;;
64520;SDS011;50896;46.714;17.322;2023-07-02T03:50:00;16.80;;;9.60;;
64520;SDS011;50896;46.714;17.322;2023-07-02T03:52:27;18.25;;;9.85;;
64520;SDS011;50896;46.714;17.322;2023-07-02T03:54:54;12.63;;;9.60;;
64520;SDS011;50896;46.714;17.322;2023-07-02T03:57:21;12.00;;;9.25;;
64520;SDS011;50896;46.714;17.322;2023-07-02T03:59:47;14.45;;;9.52;;
64520;SDS011;50896;46.714;17.322;2023-07-02T04:02:15;13.43;;;8.65;;
64520;SDS011;50896;46.714;17.322;2023-07-02T04:04:41;17.85;;;9.88;;
64520;SDS011;50896;46.714;17.322;2023-07-02T04:07:08;16.00;;;10.05;;
64520;SDS011;50896;46.714;17.322;2023-07-02T04:09:35;13.57;;;8.95;;
64520;SDS011;50896;46.714;17.322;2023-07-02T04:12:02;16.65;;;9.75;;
64520;SDS011;50896;46.714;17.322;2023-07-02T04:14:29;16.40;;;9.50;;
64520;SDS011;50896;46.714;17.322;2023-07-02T04:16:56;12.70;;;9.65;;
64520;SDS011;50896;46.714;17.322;2023-07-02T04:19:23;18.48;;;9.63;;
64520;SDS011;50896;46.714;17.322;2023-07-02T04:21:49;17.58;;;10.07;;
64520;SDS011;50896;46.714;17.322;2023-07-02T04:24:16;14.32;;;9.75;;
64520;SDS011;50896;46.714;17.322;2023-07-02T04:26:44;16.10;;;9.32;;
64520;SDS011;50896;46.714;17.322;2023-07-02T04:29:31;15.85;;;10.07;;
64520;SDS011;50896;46.714;17.322;2023-07-02T04:31:57;16.30;;;10.13;;
64520;SDS011;50896;46.714;17.322;2023-07-02T04:34:24;13.25;;;9.18;;
64520;SDS011;50896;46.714;17.322;2023-07-02T04:36:51;13.32;;;9.85;;
64520;SDS011;50896;46.714;17.322;2023-07-02T04:39:19;18.95;;;10.02;;
64520;SDS011;50896;46.714;17.322;2023-07-02T04:41:46;12.07;;;9.13;;
64520;SDS011;50896;46.714;17.322;2023-07-02T04:44:13;12.90;;;8.57;;
64520;SDS011;50896;46.714;17.322;2023-07-02T04:46:39;12.80;;;8.40;;
64520;SDS011;50896;46.714;17.322;2023-07-02T04:49:06;11.10;;;8.50;;
64520;SDS011;50896;46.714;17.322;2023-07-02T04:51:33;12.80;;;9.07;;
64520;SDS011;50896;46.714;17.322;2023-07-02T04:54:00;12.73;;;8.70;;
64520;SDS011;50896;46.714;17.322;2023-07-02T04:56:27;13.93;;;8.75;;
64520;SDS011;50896;46.714;17.322;2023-07-02T04:58:54;11.68;;;8.93;;
64520;SDS011;50896;46.714;17.322;2023-07-02T05:01:21;15.98;;;8.52;;
64520;SDS011;50896;46.714;17.322;2023-07-02T05:03:48;11.77;;;8.05;;
64520;SDS011;50896;46.714;17.322;2023-07-02T05:06:15;17.73;;;8.63;;
64520;SDS011;50896;46.714;17.322;2023-07-02T05:08:42;15.63;;;8.85;;
64520;SDS011;50896;46.714;17.322;2023-07-02T05:11:08;19.63;;;8.65;;
64520;SDS011;50896;46.714;17.322;2023-07-02T05:13:37;10.77;;;8.18;;
64520;SDS011;50896;46.714;17.322;2023-07-02T05:16:03;14.65;;;8.73;;
64520;SDS011;50896;46.714;17.322;2023-07-02T05:18:30;11.40;;;8.25;;
64520;SDS011;50896;46.714;17.322;2023-07-02T05:20:57;14.13;;;8.20;;
64520;SDS011;50896;46.714;17.322;2023-07-02T05:23:24;10.32;;;7.78;;
64520;SDS011;50896;46.714;17.322;2023-07-02T05:25:51;14.13;;;8.70;;
64520;SDS011;50896;46.714;17.322;2023-07-02T05:28:18;17.45;;;8.50;;
64520;SDS011;50896;46.714;17.322;2023-07-02T05:30:45;12.55;;;8.27;;
64520;SDS011;50896;46.714;17.322;2023-07-02T05:33:12;13.88;;;8.48;;
64520;SDS011;50896;46.714;17.322;2023-07-02T05:35:39;11.25;;;7.82;;
64520;SDS011;50896;46.714;17.322;2023-07-02T05:38:06;13.40;;;7.35;;
64520;SDS011;50896;46.714;17.322;2023-07-02T05:40:33;13.07;;;8.45;;
64520;SDS011;50896;46.714;17.322;2023-07-02T05:43:00;12.68;;;8.32;;
64520;SDS011;50896;46.714;17.322;2023-07-02T05:45:27;16.50;;;8.80;;
64520;SDS011;50896;46.714;17.322;2023-07-02T05:47:55;14.02;;;8.38;;
64520;SDS011;50896;46.714;17.322;2023-07-02T05:50:22;15.65;;;8.18;;
64520;SDS011;50896;46.714;17.322;2023-07-02T05:52:50;14.27;;;7.75;;
64520;SDS011;50896;46.714;17.322;2023-07-02T05:55:16;11.00;;;7.43;;
64520;SDS011;50896;46.714;17.322;2023-07-02T05:57:43;10.77;;;7.50;;
64520;SDS011;50896;46.714;17.322;2023-07-02T06:00:11;12.15;;;7.70;;
64520;SDS011;50896;46.714;17.322;2023-07-02T06:02:38;11.52;;;7.47;;
64520;SDS011;50896;46.714;17.322;2023-07-02T06:05:08;12.77;;;7.80;;
64520;SDS011;50896;46.714;17.322;2023-07-02T06:07:35;11.65;;;7.28;;
64520;SDS011;50896;46.714;17.322;2023-07-02T06:12:31;10.82;;;6.90;;
64520;SDS011;50896;46.714;17.322;2023-07-02T06:14:58;9.52;;;7.03;;
64520;SDS011;50896;46.714;17.322;2023-07-02T06:17:25;12.13;;;7.15;;
64520;SDS011;50896;46.714;17.322;2023-07-02T06:19:52;9.35;;;6.63;;
64520;SDS011;50896;46.714;17.322;2023-07-02T06:22:19;11.10;;;6.65;;
64520;SDS011;50896;46.714;17.322;2023-07-02T06:24:46;11.43;;;7.45;;
64520;SDS011;50896;46.714;17.322;2023-07-02T06:27:12;11.13;;;7.43;;
64520;SDS011;50896;46.714;17.322;2023-07-02T06:29:39;12.82;;;7.72;;
64520;SDS011;50896;46.714;17.322;2023-07-02T06:32:06;14.02;;;7.78;;
64520;SDS011;50896;46.714;17.322;2023-07-02T06:34:33;18.58;;;7.53;;
64520;SDS011;50896;46.714;17.322;2023-07-02T06:37:00;9.57;;;6.88;;
64520;SDS011;50896;46.714;17.322;2023-07-02T06:39:26;11.77;;;7.53;;
64520;SDS011;50896;46.714;17.322;2023-07-02T06:41:53;14.07;;;6.97;;
64520;SDS011;50896;46.714;17.322;2023-07-02T06:44:27;11.25;;;6.72;;
64520;SDS011;50896;46.714;17.322;2023-07-02T06:46:53;13.13;;;6.95;;
64520;SDS011;50896;46.714;17.322;2023-07-02T06:49:20;12.52;;;6.40;;
64520;SDS011;50896;46.714;17.322;2023-07-02T06:51:47;17.52;;;6.47;;
64520;SDS011;50896;46.714;17.322;2023-07-02T06:54:15;10.48;;;5.72;;
64520;SDS011;50896;46.714;17.322;2023-07-02T06:56:42;10.13;;;5.68;;
64520;SDS011;50896;46.714;17.322;2023-07-02T06:59:09;7.13;;;5.60;;
64520;SDS011;50896;46.714;17.322;2023-07-02T07:01:36;7.65;;;5.65;;
64520;SDS011;50896;46.714;17.322;2023-07-02T07:04:03;7.90;;;5.25;;
64520;SDS011;50896;46.714;17.322;2023-07-02T07:06:30;8.45;;;5.50;;
64520;SDS011;50896;46.714;17.322;2023-07-02T07:08:56;8.40;;;5.13;;
64520;SDS011;50896;46.714;17.322;2023-07-02T07:11:23;9.65;;;5.28;;
64520;SDS011;50896;46.714;17.322;2023-07-02T07:13:50;9.18;;;5.28;;
64520;SDS011;50896;46.714;17.322;2023-07-02T07:16:17;7.93;;;5.20;;
64520;SDS011;50896;46.714;17.322;2023-07-02T07:18:44;11.10;;;5.45;;
64520;SDS011;50896;46.714;17.322;2023-07-02T07:21:11;8.43;;;5.25;;
64520;SDS011;50896;46.714;17.322;2023-07-02T07:23:38;9.55;;;5.25;;
64520;SDS011;50896;46.714;17.322;2023-07-02T07:26:06;7.78;;;5.13;;
64520;SDS011;50896;46.714;17.322;2023-07-02T07:28:33;8.38;;;5.00;;
64520;SDS011;50896;46.714;17.322;2023-07-02T07:31:00;6.53;;;4.70;;
64520;SDS011;50896;46.714;17.322;2023-07-02T07:33:27;7.43;;;4.88;;
64520;SDS011;50896;46.714;17.322;2023-07-02T07:35:54;8.40;;;4.88;;
64520;SDS011;50896;46.714;17.322;2023-07-02T07:38:20;7.32;;;4.68;;
64520;SDS011;50896;46.714;17.322;2023-07-02T07:40:47;8.32;;;5.00;;
64520;SDS011;50896;46.714;17.322;2023-07-02T07:43:15;7.63;;;4.60;;
64520;SDS011;50896;46.714;17.322;2023-07-02T07:45:42;7.25;;;4.80;;
64520;SDS011;50896;46.714;17.322;2023-07-02T07:48:10;6.75;;;4.45;;
64520;SDS011;50896;46.714;17.322;2023-07-02T07:50:36;9.27;;;4.88;;
64520;SDS011;50896;46.714;17.322;2023-07-02T07:53:03;5.22;;;4.05;;
64520;SDS011;50896;46.714;17.322;2023-07-02T07:55:30;6.10;;;4.82;;
64520;SDS011;50896;46.714;17.322;2023-07-02T07:57:57;6.07;;;4.50;;
64520;SDS011;50896;46.714;17.322;2023-07-02T08:00:24;5.60;;;4.30;;
64520;SDS011;50896;46.714;17.322;2023-07-02T08:02:52;7.78;;;4.70;;
64520;SDS011;50896;46.714;17.322;2023-07-02T08:05:22;5.93;;;3.83;;
64520;SDS011;50896;46.714;17.322;2023-07-02T08:07:49;5.30;;;4.07;;
64520;SDS011;50896;46.714;17.322;2023-07-02T08:10:16;4.82;;;3.67;;
64520;SDS011;50896;46.714;17.322;2023-07-02T08:12:43;6.93;;;4.18;;
64520;SDS011;50896;46.714;17.322;2023-07-02T08:15:10;7.25;;;4.45;;
64520;SDS011;50896;46.714;17.322;2023-07-02T08:17:36;5.70;;;3.90;;
64520;SDS011;50896;46.714;17.322;2023-07-02T08:20:03;6.20;;;3.80;;
64520;SDS011;50896;46.714;17.322;2023-07-02T08:22:31;6.15;;;3.45;;
64520;SDS011;50896;46.714;17.322;2023-07-02T08:24:57;7.55;;;3.45;;
64520;SDS011;50896;46.714;17.322;2023-07-02T08:27:24;6.00;;;3.25;;
64520;SDS011;50896;46.714;17.322;2023-07-02T08:29:52;4.78;;;3.50;;
64520;SDS011;50896;46.714;17.322;2023-07-02T08:32:19;8.43;;;3.17;;
64520;SDS011;50896;46.714;17.322;2023-07-02T08:34:46;6.53;;;3.33;;
64520;SDS011;50896;46.714;17.322;2023-07-02T08:37:12;7.55;;;3.45;;
64520;SDS011;50896;46.714;17.322;2023-07-02T08:39:39;8.35;;;3.55;;
64520;SDS011;50896;46.714;17.322;2023-07-02T08:42:06;4.85;;;3.00;;
64520;SDS011;50896;46.714;17.322;2023-07-02T08:44:33;3.80;;;2.95;;
64520;SDS011;50896;46.714;17.322;2023-07-02T08:47:02;7.47;;;3.65;;
64520;SDS011;50896;46.714;17.322;2023-07-02T08:49:29;8.57;;;3.90;;
64520;SDS011;50896;46.714;17.322;2023-07-02T08:51:57;8.98;;;3.35;;
64520;SDS011;50896;46.714;17.322;2023-07-02T08:54:24;6.18;;;3.65;;
64520;SDS011;50896;46.714;17.322;2023-07-02T08:56:51;9.07;;;3.53;;
64520;SDS011;50896;46.714;17.322;2023-07-02T08:59:18;6.13;;;3.50;;
64520;SDS011;50896;46.714;17.322;2023-07-02T09:01:49;4.78;;;3.35;;
64520;SDS011;50896;46.714;17.322;2023-07-02T09:04:17;5.72;;;3.67;;
64520;SDS011;50896;46.714;17.322;2023-07-02T09:07:12;3.97;;;3.28;;
64520;SDS011;50896;46.714;17.322;2023-07-02T09:09:47;5.90;;;3.17;;
64520;SDS011;50896;46.714;17.322;2023-07-02T09:12:26;7.63;;;3.15;;
64520;SDS011;50896;46.714;17.322;2023-07-02T09:14:55;4.50;;;2.92;;
64520;SDS011;50896;46.714;17.322;2023-07-02T09:17:29;5.65;;;3.70;;
64520;SDS011;50896;46.714;17.322;2023-07-02T09:19:58;4.30;;;3.40;;
64520;SDS011;50896;46.714;17.322;2023-07-02T09:22:27;5.40;;;3.30;;
64520;SDS011;50896;46.714;17.322;2023-07-02T09:24:54;7.85;;;3.38;;
64520;SDS011;50896;46.714;17.322;2023-07-02T09:27:37;5.35;;;3.30;;
64520;SDS011;50896;46.714;17.322;2023-07-02T09:30:09;3.63;;;2.80;;
64520;SDS011;50896;46.714;17.322;2023-07-02T09:32:36;4.65;;;3.33;;
64520;SDS011;50896;46.714;17.322;2023-07-02T09:35:04;4.60;;;3.08;;
64520;SDS011;50896;46.714;17.322;2023-07-02T09:37:32;4.53;;;2.60;;
64520;SDS011;50896;46.714;17.322;2023-07-02T09:39:59;3.60;;;2.63;;
64520;SDS011;50896;46.714;17.322;2023-07-02T09:42:27;4.93;;;2.63;;
64520;SDS011;50896;46.714;17.322;2023-07-02T09:44:55;2.83;;;2.25;;
64520;SDS011;50896;46.714;17.322;2023-07-02T09:47:25;2.33;;;1.90;;
64520;SDS011;50896;46.714;17.322;2023-07-02T09:49:54;3.50;;;2.13;;
64520;SDS011;50896;46.714;17.322;2023-07-02T09:52:26;4.80;;;2.40;;
64520;SDS011;50896;46.714;17.322;2023-07-02T09:54:54;4.40;;;2.22;;
64520;SDS011;50896;46.714;17.322;2023-07-02T09:57:21;4.47;;;1.85;;
64520;SDS011;50896;46.714;17.322;2023-07-02T09:59:48;2.60;;;1.88;;
64520;SDS011;50896;46.714;17.322;2023-07-02T10:02:15;2.30;;;2.10;;
64520;SDS011;50896;46.714;17.322;2023-07-02T10:04:46;3.38;;;2.25;;
64520;SDS011;50896;46.714;17.322;2023-07-02T10:07:25;2.95;;;1.80;;
64520;SDS011;50896;46.714;17.322;2023-07-02T10:09:55;2.05;;;1.85;;
64520;SDS011;50896;46.714;17.322;2023-07-02T10:12:24;1.77;;;1.52;;
64520;SDS011;50896;46.714;17.322;2023-07-02T10:14:52;2.42;;;1.80;;
64520;SDS011;50896;46.714;17.322;2023-07-02T10:17:27;2.37;;;1.73;;
64520;SDS011;50896;46.714;17.322;2023-07-02T10:20:02;2.92;;;2.40;;
64520;SDS011;50896;46.714;17.322;2023-07-02T10:25:12;3.15;;;2.05;;
64520;SDS011;50896;46.714;17.322;2023-07-02T10:27:39;3.90;;;2.40;;
64520;SDS011;50896;46.714;17.322;2023-07-02T10:30:08;3.65;;;2.10;;
64520;SDS011;50896;46.714;17.322;2023-07-02T10:32:36;2.60;;;2.03;;
64520;SDS011;50896;46.714;17.322;2023-07-02T10:35:14;2.30;;;1.98;;
64520;SDS011;50896;46.714;17.322;2023-07-02T10:37:42;2.33;;;1.83;;
64520;SDS011;50896;46.714;17.322;2023-07-02T10:40:09;2.22;;;1.63;;
64520;SDS011;50896;46.714;17.322;2023-07-02T10:42:51;3.40;;;1.65;;
64520;SDS011;50896;46.714;17.322;2023-07-02T10:45:19;3.03;;;1.73;;
64520;SDS011;50896;46.714;17.322;2023-07-02T10:47:56;4.13;;;1.63;;
64520;SDS011;50896;46.714;17.322;2023-07-02T10:50:23;3.10;;;1.70;;
64520;SDS011;50896;46.714;17.322;2023-07-02T10:52:52;1.80;;;1.60;;
64520;SDS011;50896;46.714;17.322;2023-07-02T10:55:19;3.47;;;1.80;;
64520;SDS011;50896;46.714;17.322;2023-07-02T10:57:48;2.47;;;1.77;;
64520;SDS011;50896;46.714;17.322;2023-07-02T11:00:18;2.83;;;1.88;;
64520;SDS011;50896;46.714;17.322;2023-07-02T11:02:45;3.95;;;1.60;;
64520;SDS011;50896;46.714;17.322;2023-07-02T11:05:13;3.13;;;1.73;;
64520;SDS011;50896;46.714;17.322;2023-07-02T11:07:41;2.20;;;1.77;;
64520;SDS011;50896;46.714;17.322;2023-07-02T11:10:09;1.90;;;1.50;;
64520;SDS011;50896;46.714;17.322;2023-07-02T11:15:22;2.15;;;1.75;;
64520;SDS011;50896;46.714;17.322;2023-07-02T11:17:49;2.50;;;1.40;;
64520;SDS011;50896;46.714;17.322;2023-07-02T11:20:16;2.30;;;1.23;;
64520;SDS011;50896;46.714;17.322;2023-07-02T11:22:43;1.63;;;1.52;;
64520;SDS011;50896;46.714;17.322;2023-07-02T11:25:11;5.07;;;1.90;;
64520;SDS011;50896;46.714;17.322;2023-07-02T11:27:43;1.67;;;1.45;;
64520;SDS011;50896;46.714;17.322;2023-07-02T11:30:10;1.98;;;1.77;;
64520;SDS011;50896;46.714;17.322;2023-07-02T11:32:48;2.45;;;1.70;;
64520;SDS011;50896;46.714;17.322;2023-07-02T11:35:17;2.88;;;1.70;;
64520;SDS011;50896;46.714;17.322;2023-07-02T11:37:44;2.70;;;1.80;;
64520;SDS011;50896;46.714;17.322;2023-07-02T11:40:12;2.78;;;1.90;;
64520;SDS011;50896;46.714;17.322;2023-07-02T11:42:40;2.67;;;1.90;;
64520;SDS011;50896;46.714;17.322;2023-07-02T11:45:07;8.48;;;2.10;;
64520;SDS011;50896;46.714;17.322;2023-07-02T11:47:34;2.17;;;1.98;;
64520;SDS011;50896;46.714;17.322;2023-07-02T11:50:01;3.30;;;1.80;;
64520;SDS011;50896;46.714;17.322;2023-07-02T11:52:48;2.20;;;1.80;;
64520;SDS011;50896;46.714;17.322;2023-07-02T11:55:15;2.00;;;1.60;;
64520;SDS011;50896;46.714;17.322;2023-07-02T11:57:42;2.35;;;1.55;;
64520;SDS011;50896;46.714;17.322;2023-07-02T12:00:09;2.13;;;1.60;;
64520;SDS011;50896;46.714;17.322;2023-07-02T12:02:36;1.50;;;1.40;;
64520;SDS011;50896;46.714;17.322;2023-07-02T12:05:03;1.65;;;1.55;;
64520;SDS011;50896;46.714;17.322;2023-07-02T12:07:33;1.92;;;1.60;;
64520;SDS011;50896;46.714;17.322;2023-07-02T12:10:01;3.55;;;1.95;;
64520;SDS011;50896;46.714;17.322;2023-07-02T12:12:28;2.10;;;1.77;;
64520;SDS011;50896;46.714;17.322;2023-07-02T12:14:55;3.03;;;1.88;;
64520;SDS011;50896;46.714;17.322;2023-07-02T12:17:22;3.30;;;1.80;;
64520;SDS011;50896;46.714;17.322;2023-07-02T12:19:48;1.80;;;1.70;;
64520;SDS011;50896;46.714;17.322;2023-07-02T12:22:15;2.35;;;1.83;;
64520;SDS011;50896;46.714;17.322;2023-07-02T12:24:44;2.05;;;1.58;;
64520;SDS011;50896;46.714;17.322;2023-07-02T12:27:11;1.40;;;1.30;;
64520;SDS011;50896;46.714;17.322;2023-07-02T12:29:38;1.67;;;1.35;;
64520;SDS011;50896;46.714;17.322;2023-07-02T12:32:04;1.58;;;1.35;;
64520;SDS011;50896;46.714;17.322;2023-07-02T12:34:32;1.65;;;1.50;;
64520;SDS011;50896;46.714;17.322;2023-07-02T12:36:58;1.40;;;1.30;;
64520;SDS011;50896;46.714;17.322;2023-07-02T12:39:25;1.42;;;1.00;;
64520;SDS011;50896;46.714;17.322;2023-07-02T12:41:53;4.28;;;1.30;;
64520;SDS011;50896;46.714;17.322;2023-07-02T12:44:20;1.88;;;1.30;;
64520;SDS011;50896;46.714;17.322;2023-07-02T12:46:47;2.80;;;1.65;;
64520;SDS011;50896;46.714;17.322;2023-07-02T12:49:14;2.08;;;1.25;;
64520;SDS011;50896;46.714;17.322;2023-07-02T12:51:41;1.45;;;1.23;;
64520;SDS011;50896;46.714;17.322;2023-07-02T12:54:07;1.80;;;1.50;;
64520;SDS011;50896;46.714;17.322;2023-07-02T12:56:34;1.65;;;1.55;;
64520;SDS011;50896;46.714;17.322;2023-07-02T12:59:01;1.67;;;1.40;;
64520;SDS011;50896;46.714;17.322;2023-07-02T13:01:29;3.83;;;1.70;;
64520;SDS011;50896;46.714;17.322;2023-07-02T13:03:56;2.65;;;1.58;;
64520;SDS011;50896;46.714;17.322;2023-07-02T13:06:23;2.40;;;1.50;;
64520;SDS011;50896;46.714;17.322;2023-07-02T13:08:50;1.60;;;1.50;;
64520;SDS011;50896;46.714;17.322;2023-07-02T13:11:17;1.92;;;1.48;;
64520;SDS011;50896;46.714;17.322;2023-07-02T13:13:44;1.92;;;1.35;;
64520;SDS011;50896;46.714;17.322;2023-07-02T13:16:11;2.15;;;1.55;;
64520;SDS011;50896;46.714;17.322;2023-07-02T13:18:38;3.75;;;1.40;;
64520;SDS011;50896;46.714;17.322;2023-07-02T13:21:04;2.30;;;1.33;;
64520;SDS011;50896;46.714;17.322;2023-07-02T13:23:32;3.17;;;1.25;;
64520;SDS011;50896;46.714;17.322;2023-07-02T13:25:58;1.88;;;1.13;;
64520;SDS011;50896;46.714;17.322;2023-07-02T13:28:25;1.58;;;1.17;;
64520;SDS011;50896;46.714;17.322;2023-07-02T13:33:21;1.75;;;1.40;;
64520;SDS011;50896;46.714;17.322;2023-07-02T13:35:48;1.85;;;1.13;;
64520;SDS011;50896;46.714;17.322;2023-07-02T13:38:16;1.13;;;1.02;;
64520;SDS011;50896;46.714;17.322;2023-07-02T13:40:43;1.30;;;1.10;;
64520;SDS011;50896;46.714;17.322;2023-07-02T13:43:09;1.90;;;1.05;;
64520;SDS011;50896;46.714;17.322;2023-07-02T13:45:36;1.70;;;1.10;;
64520;SDS011;50896;46.714;17.322;2023-07-02T13:48:03;1.17;;;1.08;;
64520;SDS011;50896;46.714;17.322;2023-07-02T13:50:31;1.40;;;1.10;;
64520;SDS011;50896;46.714;17.322;2023-07-02T13:52:58;1.13;;;1.02;;
64520;SDS011;50896;46.714;17.322;2023-07-02T13:55:25;1.10;;;1.00;;
64520;SDS011;50896;46.714;17.322;2023-07-02T13:57:54;1.17;;;0.90;;
64520;SDS011;50896;46.714;17.322;2023-07-02T14:00:27;1.48;;;1.20;;
64520;SDS011;50896;46.714;17.322;2023-07-02T14:02:55;1.27;;;1.10;;
64520;SDS011;50896;46.714;17.322;2023-07-02T14:05:22;1.20;;;1.10;;
64520;SDS011;50896;46.714;17.322;2023-07-02T14:07:49;3.35;;;1.00;;
64520;SDS011;50896;46.714;17.322;2023-07-02T14:10:16;1.65;;;1.05;;
64520;SDS011;50896;46.714;17.322;2023-07-02T14:12:44;2.10;;;1.10;;
64520;SDS011;50896;46.714;17.322;2023-07-02T14:15:11;2.83;;;1.40;;
64520;SDS011;50896;46.714;17.322;2023-07-02T14:17:38;1.45;;;1.35;;
64520;SDS011;50896;46.714;17.322;2023-07-02T14:20:06;2.25;;;1.10;;
64520;SDS011;50896;46.714;17.322;2023-07-02T14:22:34;1.35;;;1.00;;
64520;SDS011;50896;46.714;17.322;2023-07-02T14:25:01;2.08;;;1.30;;
64520;SDS011;50896;46.714;17.322;2023-07-02T14:27:28;3.28;;;1.55;;
64520;SDS011;50896;46.714;17.322;2023-07-02T14:29:55;1.55;;;1.13;;
64520;SDS011;50896;46.714;17.322;2023-07-02T14:32:23;1.25;;;1.13;;
64520;SDS011;50896;46.714;17.322;2023-07-02T14:34:50;1.05;;;1.00;;
64520;SDS011;50896;46.714;17.322;2023-07-02T14:37:17;1.58;;;1.25;;
64520;SDS011;50896;46.714;17.322;2023-07-02T14:39:43;2.55;;;1.05;;